createdAt,value
2019-03-27T00:00:28.948Z,5.51
2019-03-27T00:01:29.041Z,5.55
2019-03-27T00:02:28.918Z,5.51
2019-03-27T00:03:29.998Z,5.56
2019-03-27T00:04:28.889Z,5.56
2019-03-27T00:05:28.960Z,5.58
2019-03-27T00:06:28.880Z,5.55
2019-03-27T00:07:28.860Z,5.49
2019-03-27T00:08:28.852Z,5.47
2019-03-27T00:09:29.911Z,5.51
2019-03-27T00:10:28.846Z,5.56
2019-03-27T00:11:35.572Z,5.55
2019-03-27T00:12:28.803Z,5.55
2019-03-27T00:13:28.844Z,5.49
2019-03-27T00:14:28.784Z,5.58
2019-03-27T00:15:28.844Z,5.63
2019-03-27T00:16:28.754Z,5.55
2019-03-27T00:17:28.825Z,5.51
2019-03-27T00:18:28.736Z,5.60
2019-03-27T00:19:29.785Z,5.56
2019-03-27T00:20:28.726Z,5.58
2019-03-27T00:21:28.796Z,5.58
2019-03-27T00:22:28.697Z,5.58
2019-03-27T00:23:28.688Z,5.55
2019-03-27T00:24:28.698Z,5.55
2019-03-27T00:25:28.679Z,5.55
2019-03-27T00:26:28.738Z,5.51
2019-03-27T00:27:28.639Z,5.52
2019-03-27T00:28:28.633Z,5.58
2019-03-27T00:29:28.652Z,5.51
2019-03-27T00:30:28.610Z,5.56
2019-03-27T00:31:28.671Z,5.51
2019-03-27T00:32:28.571Z,5.52
2019-03-27T00:33:28.561Z,5.58
2019-03-27T00:34:28.556Z,5.55
2019-03-27T00:35:28.593Z,5.51
2019-03-27T00:36:28.533Z,5.52
2019-03-27T00:37:28.584Z,5.56
2019-03-27T00:38:28.554Z,5.60
2019-03-27T00:39:28.504Z,5.59
2019-03-27T00:40:28.536Z,5.55
2019-03-27T00:41:28.475Z,5.62
2019-03-27T00:42:29.546Z,5.65
2019-03-27T00:43:28.466Z,5.62
2019-03-27T00:44:29.489Z,5.58
2019-03-27T00:45:28.457Z,5.58
2019-03-27T00:46:28.493Z,5.51
2019-03-27T00:47:28.408Z,5.60
2019-03-27T00:48:28.431Z,5.65
2019-03-27T00:49:28.389Z,5.66
2019-03-27T00:50:28.461Z,5.67
2019-03-27T00:51:28.379Z,5.63
2019-03-27T00:52:28.473Z,5.66
2019-03-27T00:53:28.340Z,5.67
2019-03-27T00:54:28.332Z,5.70
2019-03-27T00:55:28.411Z,5.70
2019-03-27T00:56:28.322Z,5.67
2019-03-27T00:57:28.344Z,5.62
2019-03-27T00:58:28.292Z,5.62
2019-03-27T00:59:28.283Z,5.56
2019-03-27T01:00:28.274Z,5.66
2019-03-27T01:01:28.364Z,5.56
2019-03-27T01:02:28.245Z,5.58
2019-03-27T01:03:28.255Z,5.55
2019-03-27T01:04:28.328Z,5.55
2019-03-27T01:05:28.207Z,5.59
2019-03-27T01:06:28.297Z,5.49
2019-03-27T01:07:28.187Z,5.55
2019-03-27T01:08:28.287Z,5.48
2019-03-27T01:09:28.157Z,5.49
2019-03-27T01:10:29.247Z,5.52
2019-03-27T01:11:28.149Z,5.51
2019-03-27T01:12:28.159Z,5.51
2019-03-27T01:13:28.121Z,5.56
2019-03-27T01:14:28.199Z,5.48
2019-03-27T01:15:39.103Z,5.48
2019-03-27T01:16:29.110Z,5.49
2019-03-27T01:17:28.101Z,5.52
2019-03-27T01:18:28.074Z,5.41
2019-03-27T01:19:30.091Z,5.55
2019-03-27T01:20:28.053Z,5.49
2019-03-27T01:21:30.073Z,5.48
2019-03-27T01:22:28.023Z,5.44
2019-03-27T01:23:28.107Z,5.51
2019-03-27T01:24:27.993Z,5.52
2019-03-27T01:25:27.984Z,5.42
2019-03-27T01:26:27.984Z,5.49
2019-03-27T01:27:27.975Z,5.47
2019-03-27T01:28:27.945Z,5.48
2019-03-27T01:29:28.016Z,5.52
2019-03-27T01:30:27.928Z,5.49
2019-03-27T01:31:28.044Z,5.49
2019-03-27T01:32:27.923Z,5.47
2019-03-27T01:33:27.997Z,5.56
2019-03-27T01:34:27.876Z,5.48
2019-03-27T01:35:28.948Z,5.47
2019-03-27T01:36:27.879Z,5.52
2019-03-27T01:37:28.890Z,5.37
2019-03-27T01:38:28.983Z,5.40
2019-03-27T01:39:29.850Z,5.40
2019-03-27T01:40:27.821Z,5.41
2019-03-27T01:41:27.821Z,5.41
2019-03-27T01:42:27.792Z,5.42
2019-03-27T01:43:27.872Z,5.42
2019-03-27T01:44:27.772Z,5.45
2019-03-27T01:45:27.802Z,5.47
2019-03-27T01:46:27.764Z,5.45
2019-03-27T01:47:29.793Z,5.47
2019-03-27T01:48:27.724Z,5.38
2019-03-27T01:49:27.784Z,5.37
2019-03-27T01:50:27.705Z,5.32
2019-03-27T01:51:27.756Z,5.27
2019-03-27T01:52:27.688Z,5.32
2019-03-27T01:53:27.756Z,5.38
2019-03-27T01:54:27.666Z,5.37
2019-03-27T01:55:28.718Z,5.38
2019-03-27T01:56:27.658Z,5.48
2019-03-27T01:57:27.639Z,5.51
2019-03-27T01:58:27.608Z,5.49
2019-03-27T01:59:28.689Z,5.45
2019-03-27T02:00:27.592Z,5.40
2019-03-27T02:01:27.640Z,5.45
2019-03-27T02:02:27.570Z,5.40
2019-03-27T02:03:27.630Z,5.42
2019-03-27T02:04:27.541Z,5.47
2019-03-27T02:05:27.571Z,5.48
2019-03-27T02:06:27.543Z,5.44
2019-03-27T02:07:27.612Z,5.37
2019-03-27T02:08:27.501Z,5.35
2019-03-27T02:09:27.544Z,5.45
2019-03-27T02:10:27.525Z,5.48
2019-03-27T02:11:28.555Z,5.44
2019-03-27T02:12:27.465Z,5.38
2019-03-27T02:13:27.455Z,5.35
2019-03-27T02:14:27.446Z,5.47
2019-03-27T02:15:27.445Z,5.38
2019-03-27T02:16:27.428Z,5.32
2019-03-27T02:17:27.486Z,5.38
2019-03-27T02:18:27.457Z,5.30
2019-03-27T02:19:27.377Z,5.29
2019-03-27T02:20:28.418Z,5.24
2019-03-27T02:21:27.379Z,5.30
2019-03-27T02:22:29.369Z,5.19
2019-03-27T02:23:27.329Z,5.26
2019-03-27T02:24:28.390Z,5.29
2019-03-27T02:25:27.320Z,5.19
2019-03-27T02:26:27.341Z,5.26
2019-03-27T02:27:27.302Z,5.29
2019-03-27T02:28:27.342Z,5.23
2019-03-27T02:29:27.272Z,5.20
2019-03-27T02:30:27.283Z,5.14
2019-03-27T02:31:27.262Z,5.30
2019-03-27T02:32:28.334Z,5.15
2019-03-27T02:33:27.224Z,5.17
2019-03-27T02:34:27.216Z,5.14
2019-03-27T02:35:27.305Z,5.19
2019-03-27T02:36:27.206Z,5.05
2019-03-27T02:37:27.247Z,5.09
2019-03-27T02:38:27.168Z,5.15
2019-03-27T02:39:27.157Z,5.11
2019-03-27T02:40:27.147Z,5.20
2019-03-27T02:41:27.164Z,5.09
2019-03-27T02:42:27.117Z,5.17
2019-03-27T02:43:27.159Z,5.11
2019-03-27T02:44:27.129Z,5.12
2019-03-27T02:45:27.098Z,5.05
2019-03-27T02:46:27.209Z,5.20
2019-03-27T02:47:27.077Z,5.11
2019-03-27T02:48:29.151Z,5.09
2019-03-27T02:49:27.058Z,5.12
2019-03-27T02:50:27.142Z,5.19
2019-03-27T02:51:27.027Z,5.08
2019-03-27T02:52:27.112Z,5.06
2019-03-27T02:53:26.992Z,5.04
2019-03-27T02:54:27.003Z,5.06
2019-03-27T02:55:26.973Z,5.05
2019-03-27T02:56:28.063Z,5.04
2019-03-27T02:57:26.964Z,4.96
2019-03-27T02:58:27.995Z,5.01
2019-03-27T02:59:26.925Z,5.04
2019-03-27T03:00:26.926Z,4.96
2019-03-27T03:01:26.915Z,5.11
2019-03-27T03:02:26.997Z,5.06
2019-03-27T03:03:26.880Z,4.97
2019-03-27T03:04:27.908Z,4.99
2019-03-27T03:05:27.977Z,5.06
2019-03-27T03:06:26.860Z,4.94
2019-03-27T03:07:26.942Z,4.99
2019-03-27T03:08:26.842Z,4.99
2019-03-27T03:09:26.921Z,5.02
2019-03-27T03:10:26.810Z,4.91
2019-03-27T03:11:27.881Z,4.88
2019-03-27T03:12:26.801Z,4.87
2019-03-27T03:13:26.791Z,4.88
2019-03-27T03:14:26.830Z,4.84
2019-03-27T03:15:26.833Z,4.88
2019-03-27T03:16:41.309Z,4.86
2019-03-27T03:17:27.744Z,4.77
2019-03-27T03:18:26.735Z,4.74
2019-03-27T03:19:26.713Z,4.77
2019-03-27T03:20:26.774Z,4.75
2019-03-27T03:21:26.757Z,4.72
2019-03-27T03:22:26.695Z,4.84
2019-03-27T03:23:26.681Z,4.80
2019-03-27T03:24:26.664Z,4.71
2019-03-27T03:25:26.707Z,4.61
2019-03-27T03:26:26.687Z,4.74
2019-03-27T03:27:26.627Z,4.71
2019-03-27T03:28:27.647Z,4.72
2019-03-27T03:29:26.598Z,4.79
2019-03-27T03:30:26.649Z,4.72
2019-03-27T03:31:26.570Z,4.69
2019-03-27T03:32:26.635Z,4.75
2019-03-27T03:33:26.707Z,4.77
2019-03-27T03:34:26.631Z,4.84
2019-03-27T03:35:26.569Z,4.72
2019-03-27T03:36:26.561Z,4.75
2019-03-27T03:37:26.521Z,4.83
2019-03-27T03:38:26.601Z,4.86
2019-03-27T03:39:26.500Z,4.62
2019-03-27T03:40:27.555Z,4.75
2019-03-27T03:41:26.474Z,4.71
2019-03-27T03:42:26.474Z,4.69
2019-03-27T03:43:34.117Z,4.67
2019-03-27T03:44:26.425Z,4.69
2019-03-27T03:45:28.516Z,4.62
2019-03-27T03:46:26.405Z,4.54
2019-03-27T03:47:26.406Z,4.68
2019-03-27T03:48:26.387Z,4.68
2019-03-27T03:49:26.449Z,4.69
2019-03-27T03:50:26.357Z,4.65
2019-03-27T03:51:27.399Z,4.62
2019-03-27T03:52:26.348Z,4.69
2019-03-27T03:53:26.329Z,4.65
2019-03-27T03:54:26.400Z,4.62
2019-03-27T03:55:26.313Z,4.62
2019-03-27T03:56:26.319Z,4.61
2019-03-27T03:57:26.419Z,4.62
2019-03-27T03:58:26.287Z,4.64
2019-03-27T03:59:27.350Z,4.62
2019-03-27T04:00:26.251Z,4.62
2019-03-27T04:01:26.263Z,4.59
2019-03-27T04:02:26.243Z,4.67
2019-03-27T04:03:26.213Z,4.67
2019-03-27T04:04:26.203Z,4.69
2019-03-27T04:05:26.228Z,4.69
2019-03-27T04:06:26.175Z,4.65
2019-03-27T04:07:26.206Z,4.65
2019-03-27T04:08:26.264Z,4.65
2019-03-27T04:09:26.218Z,4.72
2019-03-27T04:10:26.137Z,4.65
2019-03-27T04:11:26.236Z,4.68
2019-03-27T04:12:26.136Z,4.62
2019-03-27T04:13:26.106Z,4.69
2019-03-27T04:14:26.098Z,4.59
2019-03-27T04:15:26.109Z,4.68
2019-03-27T04:16:26.077Z,4.62
2019-03-27T04:17:26.119Z,4.65
2019-03-27T04:18:26.058Z,4.61
2019-03-27T04:19:26.029Z,4.56
2019-03-27T04:20:26.049Z,4.56
2019-03-27T04:21:27.085Z,4.57
2019-03-27T04:22:26.132Z,4.46
2019-03-27T04:23:25.992Z,4.50
2019-03-27T04:24:25.982Z,4.36
2019-03-27T04:25:25.992Z,4.46
2019-03-27T04:26:25.952Z,4.38
2019-03-27T04:27:26.064Z,4.39
2019-03-27T04:28:25.932Z,4.49
2019-03-27T04:29:25.934Z,4.43
2019-03-27T04:30:26.057Z,4.36
2019-03-27T04:31:25.904Z,4.49
2019-03-27T04:32:26.030Z,4.35
2019-03-27T04:33:25.885Z,4.35
2019-03-27T04:34:25.876Z,4.38
2019-03-27T04:35:25.866Z,4.34
2019-03-27T04:36:27.887Z,4.32
2019-03-27T04:37:25.858Z,4.38
2019-03-27T04:38:25.889Z,4.38
2019-03-27T04:39:25.807Z,4.34
2019-03-27T04:40:27.869Z,4.34
2019-03-27T04:41:25.790Z,4.32
2019-03-27T04:42:27.835Z,4.29
2019-03-27T04:43:25.761Z,4.29
2019-03-27T04:44:26.804Z,4.32
2019-03-27T04:45:25.740Z,4.24
2019-03-27T04:46:25.821Z,4.31
2019-03-27T04:47:31.963Z,4.24
2019-03-27T04:48:27.902Z,4.25
2019-03-27T04:49:25.713Z,4.29
2019-03-27T04:50:25.681Z,4.28
2019-03-27T04:51:25.762Z,4.24
2019-03-27T04:52:25.691Z,4.24
2019-03-27T04:53:25.694Z,4.13
2019-03-27T04:54:27.138Z,4.24
2019-03-27T04:55:25.644Z,4.17
2019-03-27T04:56:25.625Z,4.16
2019-03-27T04:57:25.654Z,4.10
2019-03-27T04:58:25.610Z,4.07
2019-03-27T04:59:25.696Z,4.06
2019-03-27T05:00:26.687Z,4.07
2019-03-27T05:01:25.566Z,4.04
2019-03-27T05:02:26.628Z,4.06
2019-03-27T05:03:25.557Z,4.11
2019-03-27T05:04:26.564Z,4.06
2019-03-27T05:05:25.518Z,4.10
2019-03-27T05:06:25.578Z,3.99
2019-03-27T05:07:25.512Z,4.04
2019-03-27T05:08:25.559Z,3.99
2019-03-27T05:09:25.479Z,4.02
2019-03-27T05:10:25.550Z,3.92
2019-03-27T05:11:25.461Z,3.95
2019-03-27T05:12:25.492Z,3.86
2019-03-27T05:13:25.451Z,3.89
2019-03-27T05:14:25.511Z,3.92
2019-03-27T05:15:25.413Z,3.84
2019-03-27T05:16:25.392Z,3.84
2019-03-27T05:17:25.383Z,3.75
2019-03-27T05:18:25.434Z,3.89
2019-03-27T05:19:25.374Z,3.72
2019-03-27T05:20:28.608Z,3.75
2019-03-27T05:21:25.398Z,3.64
2019-03-27T05:22:25.325Z,3.71
2019-03-27T05:23:25.375Z,3.53
2019-03-27T05:24:25.317Z,3.60
2019-03-27T05:25:25.378Z,3.64
2019-03-27T05:26:25.297Z,3.45
2019-03-27T05:27:26.328Z,3.46
2019-03-27T05:28:25.290Z,3.52
2019-03-27T05:29:26.368Z,3.50
2019-03-27T05:30:25.238Z,3.52
2019-03-27T05:31:25.269Z,3.37
2019-03-27T05:32:25.219Z,3.30
2019-03-27T05:33:25.256Z,3.35
2019-03-27T05:34:25.192Z,3.34
2019-03-27T05:35:25.242Z,3.39
2019-03-27T05:36:25.173Z,3.34
2019-03-27T05:37:25.163Z,3.35
2019-03-27T05:38:25.163Z,3.39
2019-03-27T05:39:25.222Z,3.33
2019-03-27T05:40:25.123Z,3.34
2019-03-27T05:41:25.154Z,3.33
2019-03-27T05:42:25.114Z,3.37
2019-03-27T05:43:25.114Z,3.30
2019-03-27T05:44:25.155Z,3.34
2019-03-27T05:45:25.075Z,3.45
2019-03-27T05:46:26.552Z,3.42
2019-03-27T05:47:25.046Z,3.41
2019-03-27T05:48:25.059Z,3.50
2019-03-27T05:49:25.106Z,3.52
2019-03-27T05:50:25.017Z,3.60
2019-03-27T05:51:25.027Z,3.62
2019-03-27T05:52:24.987Z,3.63
2019-03-27T05:53:24.998Z,3.68
2019-03-27T05:54:26.058Z,3.67
2019-03-27T05:55:26.553Z,3.64
2019-03-27T05:56:24.969Z,3.74
2019-03-27T05:57:24.940Z,3.72
2019-03-27T05:58:24.942Z,3.77
2019-03-27T05:59:24.921Z,3.72
2019-03-27T06:00:26.504Z,3.74
2019-03-27T06:01:24.906Z,3.71
2019-03-27T06:02:33.582Z,3.67
2019-03-27T06:03:24.892Z,3.71
2019-03-27T06:04:24.865Z,3.77
2019-03-27T06:05:31.544Z,3.84
2019-03-27T06:06:24.833Z,3.84
2019-03-27T06:07:24.925Z,3.81
2019-03-27T06:08:24.824Z,3.86
2019-03-27T06:09:24.805Z,3.84
2019-03-27T06:10:24.785Z,3.86
2019-03-27T06:11:25.807Z,3.98
2019-03-27T06:12:24.766Z,3.99
2019-03-27T06:13:25.786Z,3.98
2019-03-27T06:14:24.747Z,3.99
2019-03-27T06:15:24.771Z,3.95
2019-03-27T06:16:24.728Z,4.06
2019-03-27T06:17:24.802Z,4.00
2019-03-27T06:18:24.729Z,4.00
2019-03-27T06:19:24.739Z,4.10
2019-03-27T06:20:24.690Z,4.07
2019-03-27T06:21:24.772Z,4.00
2019-03-27T06:22:24.670Z,4.08
2019-03-27T06:23:24.761Z,4.06
2019-03-27T06:24:24.631Z,4.14
2019-03-27T06:25:24.622Z,4.17
2019-03-27T06:26:25.642Z,4.16
2019-03-27T06:27:24.609Z,4.25
2019-03-27T06:28:24.687Z,4.18
2019-03-27T06:29:24.576Z,4.31
2019-03-27T06:30:24.563Z,4.34
2019-03-27T06:31:25.575Z,4.38
2019-03-27T06:32:24.555Z,4.43
2019-03-27T06:33:24.629Z,4.36
2019-03-27T06:34:24.526Z,4.50
2019-03-27T06:35:24.506Z,4.61
2019-03-27T06:36:24.592Z,4.64
2019-03-27T06:37:24.497Z,4.64
2019-03-27T06:38:29.594Z,4.64
2019-03-27T06:39:24.479Z,4.67
2019-03-27T06:40:25.488Z,4.67
2019-03-27T06:41:24.448Z,4.67
2019-03-27T06:42:24.499Z,4.69
2019-03-27T06:43:24.449Z,4.64
2019-03-27T06:44:26.482Z,4.67
2019-03-27T06:45:24.402Z,4.65
2019-03-27T06:46:24.418Z,4.72
2019-03-27T06:47:25.464Z,4.77
2019-03-27T06:48:26.526Z,4.74
2019-03-27T06:49:25.402Z,4.79
2019-03-27T06:50:24.342Z,4.77
2019-03-27T06:51:25.319Z,4.83
2019-03-27T06:52:24.341Z,4.87
2019-03-27T06:53:24.403Z,4.88
2019-03-27T06:54:24.294Z,4.90
2019-03-27T06:55:24.456Z,4.83
2019-03-27T06:56:24.454Z,4.88
2019-03-27T06:57:24.290Z,4.90
2019-03-27T06:58:24.336Z,4.88
2019-03-27T06:59:24.247Z,4.90
2019-03-27T07:00:24.317Z,4.97
2019-03-27T07:01:24.260Z,5.08
2019-03-27T07:02:24.268Z,5.14
2019-03-27T07:03:24.193Z,5.30
2019-03-27T07:04:24.239Z,5.37
2019-03-27T07:05:24.179Z,5.41
2019-03-27T07:06:24.230Z,5.55
2019-03-27T07:07:24.271Z,5.56
2019-03-27T07:08:24.164Z,5.66
2019-03-27T07:09:24.150Z,5.69
2019-03-27T07:10:24.201Z,5.73
2019-03-27T07:11:24.112Z,5.83
2019-03-27T07:12:24.100Z,5.81
2019-03-27T07:13:24.113Z,5.83
2019-03-27T07:14:24.103Z,5.96
2019-03-27T07:15:24.153Z,6.08
2019-03-27T07:16:24.074Z,6.10
2019-03-27T07:17:24.064Z,6.28
2019-03-27T07:18:24.024Z,6.35
2019-03-27T07:19:24.056Z,6.53
2019-03-27T07:20:24.005Z,6.78
2019-03-27T07:21:24.046Z,7.09
2019-03-27T07:22:25.026Z,7.52
2019-03-27T07:23:23.977Z,7.89
2019-03-27T07:24:23.987Z,7.88
2019-03-27T07:25:23.948Z,7.81
2019-03-27T07:26:23.988Z,7.45
2019-03-27T07:27:23.929Z,7.26
2019-03-27T07:28:24.030Z,7.26
2019-03-27T07:29:23.931Z,7.18
2019-03-27T07:30:23.960Z,7.19
2019-03-27T07:31:23.891Z,7.21
2019-03-27T07:32:24.924Z,7.30
2019-03-27T07:33:23.964Z,7.21
2019-03-27T07:34:23.862Z,7.09
2019-03-27T07:35:24.924Z,7.11
2019-03-27T07:36:23.837Z,7.21
2019-03-27T07:37:23.834Z,7.37
2019-03-27T07:38:23.803Z,7.21
2019-03-27T07:39:23.914Z,7.14
2019-03-27T07:40:23.785Z,7.11
2019-03-27T07:41:24.836Z,7.26
2019-03-27T07:42:23.756Z,7.30
2019-03-27T07:43:23.786Z,7.26
2019-03-27T07:44:23.758Z,7.42
2019-03-27T07:45:23.767Z,7.55
2019-03-27T07:46:23.710Z,7.74
2019-03-27T07:47:23.819Z,7.36
2019-03-27T07:48:23.680Z,7.24
2019-03-27T07:49:23.809Z,7.39
2019-03-27T07:50:23.682Z,7.42
2019-03-27T07:51:23.682Z,7.48
2019-03-27T07:52:23.650Z,7.44
2019-03-27T07:53:23.721Z,7.30
2019-03-27T07:54:23.732Z,7.30
2019-03-27T07:55:23.612Z,7.48
2019-03-27T07:56:23.622Z,7.70
2019-03-27T07:57:23.592Z,7.84
2019-03-27T07:58:23.653Z,8.06
2019-03-27T07:59:23.666Z,8.12
2019-03-27T08:00:23.564Z,8.25
2019-03-27T08:01:23.574Z,8.27
2019-03-27T08:02:23.545Z,8.27
2019-03-27T08:03:23.606Z,8.29
2019-03-27T08:04:24.646Z,8.32
2019-03-27T08:05:23.540Z,8.39
2019-03-27T08:06:23.618Z,8.43
2019-03-27T08:07:27.078Z,8.52
2019-03-27T08:08:23.615Z,8.60
2019-03-27T08:09:23.469Z,8.67
2019-03-27T08:10:23.481Z,8.52
2019-03-27T08:11:23.551Z,8.47
2019-03-27T08:12:23.520Z,8.40
2019-03-27T08:13:23.410Z,8.17
2019-03-27T08:14:24.510Z,8.14
2019-03-27T08:15:23.391Z,8.24
2019-03-27T08:16:24.411Z,8.03
2019-03-27T08:17:23.372Z,8.06
2019-03-27T08:18:23.432Z,8.10
2019-03-27T08:19:23.353Z,8.09
2019-03-27T08:20:23.346Z,8.22
2019-03-27T08:21:23.334Z,8.34
2019-03-27T08:22:23.409Z,8.49
2019-03-27T08:23:23.306Z,8.58
2019-03-27T08:24:23.390Z,8.58
2019-03-27T08:25:24.326Z,8.57
2019-03-27T08:26:23.256Z,8.37
2019-03-27T08:27:23.337Z,8.42
2019-03-27T08:28:23.250Z,8.45
2019-03-27T08:29:23.317Z,8.45
2019-03-27T08:30:23.228Z,8.45
2019-03-27T08:31:23.208Z,8.49
2019-03-27T08:32:23.289Z,8.49
2019-03-27T08:33:23.180Z,8.50
2019-03-27T08:34:23.250Z,8.57
2019-03-27T08:35:23.181Z,8.58
2019-03-27T08:36:23.170Z,8.60
2019-03-27T08:37:23.151Z,8.61
2019-03-27T08:38:23.192Z,8.60
2019-03-27T08:39:23.133Z,8.57
2019-03-27T08:40:24.153Z,8.55
2019-03-27T08:41:23.104Z,8.47
2019-03-27T08:42:23.084Z,8.34
2019-03-27T08:43:25.561Z,8.25
2019-03-27T08:44:23.084Z,8.28
2019-03-27T08:45:24.089Z,8.32
2019-03-27T08:46:23.047Z,8.27
2019-03-27T08:47:23.056Z,8.34
2019-03-27T08:48:23.021Z,8.42
2019-03-27T08:49:24.097Z,8.52
2019-03-27T08:50:22.998Z,8.50
2019-03-27T08:51:23.075Z,8.58
2019-03-27T08:52:22.988Z,8.64
2019-03-27T08:53:23.009Z,8.85
2019-03-27T08:54:22.969Z,9.23
2019-03-27T08:55:23.039Z,9.41
2019-03-27T08:56:22.930Z,9.52
2019-03-27T08:57:25.020Z,9.56
2019-03-27T08:58:23.961Z,9.73
2019-03-27T08:59:22.912Z,9.78
2019-03-27T09:00:22.983Z,9.92
2019-03-27T09:01:22.862Z,9.93
2019-03-27T09:02:22.915Z,10.02
2019-03-27T09:03:22.858Z,10.06
2019-03-27T09:04:22.894Z,10.13
2019-03-27T09:05:22.835Z,10.09
2019-03-27T09:06:33.601Z,10.24
2019-03-27T09:07:23.815Z,10.47
2019-03-27T09:08:22.826Z,10.66
2019-03-27T09:09:22.896Z,10.83
2019-03-27T09:10:22.796Z,11.17
2019-03-27T09:11:22.837Z,11.41
2019-03-27T09:12:22.759Z,11.44
2019-03-27T09:13:22.759Z,11.56
2019-03-27T09:14:22.729Z,11.63
2019-03-27T09:15:22.740Z,11.31
2019-03-27T09:16:22.770Z,10.98
2019-03-27T09:17:22.701Z,10.90
2019-03-27T09:18:24.751Z,11.05
2019-03-27T09:19:34.875Z,11.11
2019-03-27T09:20:23.681Z,11.06
2019-03-27T09:21:22.703Z,11.02
2019-03-27T09:22:22.653Z,10.95
2019-03-27T09:23:22.645Z,10.91
2019-03-27T09:24:22.604Z,10.72
2019-03-27T09:25:22.735Z,10.51
2019-03-27T09:26:22.605Z,10.42
2019-03-27T09:27:22.625Z,10.57
2019-03-27T09:28:22.579Z,10.68
2019-03-27T09:29:22.646Z,10.68
2019-03-27T09:30:22.547Z,10.57
2019-03-27T09:31:22.537Z,10.69
2019-03-27T09:32:22.527Z,10.57
2019-03-27T09:33:22.628Z,10.70
2019-03-27T09:34:22.509Z,10.73
2019-03-27T09:35:22.599Z,10.76
2019-03-27T09:36:22.479Z,10.84
2019-03-27T09:37:22.480Z,10.91
2019-03-27T09:38:22.570Z,10.94
2019-03-27T09:39:22.462Z,11.19
2019-03-27T09:40:22.551Z,11.46
2019-03-27T09:41:22.439Z,11.59
2019-03-27T09:42:22.413Z,11.94
2019-03-27T09:43:22.415Z,12.03
2019-03-27T09:44:22.475Z,12.01
2019-03-27T09:45:22.384Z,11.97
2019-03-27T09:46:24.455Z,11.77
2019-03-27T09:47:22.356Z,11.49
2019-03-27T09:48:22.325Z,11.45
2019-03-27T09:49:23.446Z,11.57
2019-03-27T09:50:22.347Z,11.26
2019-03-27T09:51:22.347Z,11.39
2019-03-27T09:52:22.297Z,11.38
2019-03-27T09:53:22.298Z,11.31
2019-03-27T09:54:22.279Z,11.42
2019-03-27T09:55:23.399Z,11.38
2019-03-27T09:56:22.260Z,11.48
2019-03-27T09:57:22.361Z,11.53
2019-03-27T09:58:22.240Z,11.49
2019-03-27T09:59:22.290Z,11.48
2019-03-27T10:00:22.241Z,11.59
2019-03-27T10:01:22.226Z,11.60
2019-03-27T10:02:22.192Z,11.49
2019-03-27T10:03:22.273Z,11.60
2019-03-27T10:04:22.169Z,11.63
2019-03-27T10:05:23.264Z,11.60
2019-03-27T10:06:22.144Z,11.64
2019-03-27T10:07:22.244Z,11.94
2019-03-27T10:08:22.122Z,11.66
2019-03-27T10:09:22.115Z,11.56
2019-03-27T10:10:22.123Z,11.63
2019-03-27T10:11:23.839Z,11.60
2019-03-27T10:12:22.087Z,11.78
2019-03-27T10:13:22.157Z,11.70
2019-03-27T10:14:22.069Z,11.74
2019-03-27T10:15:22.068Z,11.67
2019-03-27T10:16:22.048Z,11.51
2019-03-27T10:17:22.020Z,11.48
2019-03-27T10:18:22.090Z,11.42
2019-03-27T10:19:22.000Z,11.41
2019-03-27T10:20:22.007Z,11.21
2019-03-27T10:21:21.981Z,11.13
2019-03-27T10:22:22.062Z,11.26
2019-03-27T10:23:21.953Z,11.13
2019-03-27T10:24:22.000Z,11.12
2019-03-27T10:25:21.980Z,11.06
2019-03-27T10:26:21.924Z,11.06
2019-03-27T10:27:22.925Z,11.05
2019-03-27T10:28:21.905Z,11.03
2019-03-27T10:29:21.946Z,11.09
2019-03-27T10:30:21.896Z,11.23
2019-03-27T10:31:21.976Z,11.39
2019-03-27T10:32:21.856Z,11.57
2019-03-27T10:33:23.061Z,11.54
2019-03-27T10:34:21.853Z,11.57
2019-03-27T10:35:22.919Z,11.64
2019-03-27T10:36:21.809Z,11.66
2019-03-27T10:37:21.869Z,11.64
2019-03-27T10:38:22.880Z,11.72
2019-03-27T10:39:21.772Z,11.63
2019-03-27T10:40:22.875Z,11.67
2019-03-27T10:41:21.750Z,11.62
2019-03-27T10:42:21.832Z,11.88
2019-03-27T10:43:21.726Z,12.03
2019-03-27T10:44:21.763Z,12.05
2019-03-27T10:45:21.734Z,12.12
2019-03-27T10:46:22.717Z,12.00
2019-03-27T10:47:21.684Z,12.00
2019-03-27T10:48:21.675Z,11.69
2019-03-27T10:49:22.728Z,11.70
2019-03-27T10:50:22.509Z,11.66
2019-03-27T10:51:22.656Z,11.66
2019-03-27T10:52:21.627Z,11.74
2019-03-27T10:53:22.694Z,11.63
2019-03-27T10:54:21.608Z,11.66
2019-03-27T10:55:21.638Z,11.66
2019-03-27T10:56:21.589Z,11.60
2019-03-27T10:57:22.679Z,11.44
2019-03-27T10:58:21.570Z,11.06
2019-03-27T10:59:21.563Z,10.90
2019-03-27T11:00:21.597Z,10.88
2019-03-27T11:01:21.631Z,10.99
2019-03-27T11:02:21.532Z,11.30
2019-03-27T11:03:22.572Z,11.33
2019-03-27T11:04:21.493Z,11.20
2019-03-27T11:05:21.503Z,11.31
2019-03-27T11:06:21.564Z,11.48
2019-03-27T11:07:21.465Z,11.62
2019-03-27T11:08:21.495Z,11.42
2019-03-27T11:09:21.445Z,11.13
2019-03-27T11:10:21.469Z,11.16
2019-03-27T11:11:21.516Z,11.01
2019-03-27T11:12:21.418Z,10.90
2019-03-27T11:13:22.470Z,10.93
2019-03-27T11:14:21.398Z,10.98
2019-03-27T11:15:22.504Z,11.16
2019-03-27T11:16:21.410Z,10.93
2019-03-27T11:17:21.419Z,10.83
2019-03-27T11:18:21.359Z,10.80
2019-03-27T11:19:23.400Z,10.72
2019-03-27T11:20:30.899Z,10.70
2019-03-27T11:21:24.010Z,10.52
2019-03-27T11:22:21.352Z,10.49
2019-03-27T11:23:21.282Z,10.32
2019-03-27T11:24:21.283Z,10.54
2019-03-27T11:25:21.265Z,10.51
2019-03-27T11:26:21.387Z,10.46
2019-03-27T11:27:21.336Z,10.49
2019-03-27T11:28:21.268Z,10.29
2019-03-27T11:29:21.226Z,10.20
2019-03-27T11:30:21.219Z,10.20
2019-03-27T11:31:21.555Z,10.16
2019-03-27T11:32:21.287Z,10.09
2019-03-27T11:33:21.199Z,10.04
2019-03-27T11:34:21.168Z,9.93
2019-03-27T11:35:21.903Z,10.01
2019-03-27T11:36:21.159Z,10.16
2019-03-27T11:37:21.132Z,10.24
2019-03-27T11:38:21.105Z,10.47
2019-03-27T11:39:21.211Z,10.46
2019-03-27T11:40:21.111Z,10.54
2019-03-27T11:41:22.223Z,10.70
2019-03-27T11:42:21.075Z,10.73
2019-03-27T11:43:21.182Z,10.70
2019-03-27T11:44:21.063Z,10.70
2019-03-27T11:45:21.123Z,10.63
2019-03-27T11:46:21.054Z,10.58
2019-03-27T11:47:21.049Z,10.36
2019-03-27T11:48:27.577Z,10.44
2019-03-27T11:49:20.985Z,10.49
2019-03-27T11:50:22.087Z,10.39
2019-03-27T11:51:21.137Z,10.39
2019-03-27T11:52:20.988Z,10.31
2019-03-27T11:53:21.998Z,10.35
2019-03-27T11:54:21.013Z,10.47
2019-03-27T11:55:20.998Z,10.62
2019-03-27T11:56:20.929Z,10.65
2019-03-27T11:57:21.959Z,10.60
2019-03-27T11:58:20.914Z,10.66
2019-03-27T11:59:20.914Z,10.62
2019-03-27T12:00:21.034Z,10.57
2019-03-27T12:01:20.978Z,10.65
2019-03-27T12:02:20.873Z,10.68
2019-03-27T12:03:20.858Z,10.63
2019-03-27T12:04:20.845Z,10.52
2019-03-27T12:05:20.874Z,10.62
2019-03-27T12:06:20.829Z,10.75
2019-03-27T12:07:20.915Z,10.75
2019-03-27T12:08:20.786Z,10.75
2019-03-27T12:09:20.766Z,10.84
2019-03-27T12:10:20.766Z,10.94
2019-03-27T12:11:20.826Z,10.87
2019-03-27T12:12:20.735Z,10.73
2019-03-27T12:13:20.818Z,10.76
2019-03-27T12:14:20.740Z,10.88
2019-03-27T12:15:20.719Z,10.91
2019-03-27T12:16:20.780Z,10.91
2019-03-27T12:17:20.703Z,10.84
2019-03-27T12:18:20.761Z,10.99
2019-03-27T12:19:20.670Z,11.05
2019-03-27T12:20:20.661Z,11.01
2019-03-27T12:21:20.852Z,11.13
2019-03-27T12:22:20.642Z,11.20
2019-03-27T12:23:20.622Z,11.21
2019-03-27T12:24:20.615Z,11.33
2019-03-27T12:25:20.603Z,11.48
2019-03-27T12:26:20.815Z,11.57
2019-03-27T12:27:20.568Z,11.62
2019-03-27T12:28:20.645Z,11.54
2019-03-27T12:29:20.565Z,11.57
2019-03-27T12:30:21.607Z,11.69
2019-03-27T12:31:20.554Z,11.62
2019-03-27T12:32:20.618Z,11.63
2019-03-27T12:33:20.527Z,11.66
2019-03-27T12:34:20.548Z,11.70
2019-03-27T12:35:20.502Z,11.81
2019-03-27T12:36:20.491Z,11.97
2019-03-27T12:37:20.470Z,11.96
2019-03-27T12:38:20.520Z,11.93
2019-03-27T12:39:20.455Z,11.67
2019-03-27T12:40:28.131Z,11.66
2019-03-27T12:41:20.442Z,11.57
2019-03-27T12:42:20.422Z,11.56
2019-03-27T12:43:27.155Z,11.44
2019-03-27T12:44:20.403Z,11.24
2019-03-27T12:45:20.503Z,11.21
2019-03-27T12:46:20.394Z,11.16
2019-03-27T12:47:20.379Z,10.99
2019-03-27T12:48:20.404Z,11.01
2019-03-27T12:49:20.354Z,11.11
2019-03-27T12:50:20.446Z,11.35
2019-03-27T12:51:20.336Z,11.46
2019-03-27T12:52:20.317Z,11.53
2019-03-27T12:53:20.297Z,11.46
2019-03-27T12:54:20.316Z,11.66
2019-03-27T12:55:20.269Z,11.62
2019-03-27T12:56:21.319Z,11.49
2019-03-27T12:57:20.253Z,11.48
2019-03-27T12:58:20.240Z,11.44
2019-03-27T12:59:20.254Z,11.42
2019-03-27T13:00:20.221Z,11.45
2019-03-27T13:01:20.341Z,11.62
2019-03-27T13:02:20.212Z,11.62
2019-03-27T13:03:20.193Z,11.75
2019-03-27T13:04:20.183Z,11.87
2019-03-27T13:05:20.264Z,11.97
2019-03-27T13:06:20.163Z,11.97
2019-03-27T13:07:21.225Z,12.13
2019-03-27T13:08:20.135Z,12.21
2019-03-27T13:09:20.116Z,12.34
2019-03-27T13:10:21.226Z,12.37